sensor_id;sensor_type;location;lat;lon;timestamp;pressure;altitude;pressure_sealevel;temperature;humidity
59417;BME280;45222;52.458;20.914;2024-02-26T00:01:43;99855.75;;;3.74;82.66
59417;BME280;45222;52.458;20.914;2024-02-26T00:05:31;99859.73;;;3.70;82.49
59417;BME280;45222;52.458;20.914;2024-02-26T00:09:18;99862.02;;;3.65;82.48
59417;BME280;45222;52.458;20.914;2024-02-26T00:13:06;99866.59;;;3.58;82.45
59417;BME280;45222;52.458;20.914;2024-02-26T00:16:53;99863.31;;;3.49;82.43
59417;BME280;45222;52.458;20.914;2024-02-26T00:20:41;99856.74;;;3.39;82.28
59417;BME280;45222;52.458;20.914;2024-02-26T00:24:29;99851.24;;;3.28;82.40
59417;BME280;45222;52.458;20.914;2024-02-26T00:28:17;99850.02;;;3.21;82.47
59417;BME280;45222;52.458;20.914;2024-02-26T00:32:04;99853.73;;;3.20;82.71
59417;BME280;45222;52.458;20.914;2024-02-26T00:35:52;99855.09;;;3.15;82.56
59417;BME280;45222;52.458;20.914;2024-02-26T00:39:40;99853.54;;;3.14;82.71
59417;BME280;45222;52.458;20.914;2024-02-26T00:43:27;99847.42;;;3.13;82.66
59417;BME280;45222;52.458;20.914;2024-02-26T00:47:15;99842.27;;;3.08;82.41
59417;BME280;45222;52.458;20.914;2024-02-26T00:51:03;99835.20;;;2.89;82.21
59417;BME280;45222;52.458;20.914;2024-02-26T00:54:51;99835.45;;;2.73;82.27
59417;BME280;45222;52.458;20.914;2024-02-26T00:58:39;99835.52;;;2.63;82.50
59417;BME280;45222;52.458;20.914;2024-02-26T01:02:26;99839.64;;;2.59;82.93
59417;BME280;45222;52.458;20.914;2024-02-26T01:06:14;99845.30;;;2.57;83.06
59417;BME280;45222;52.458;20.914;2024-02-26T01:10:02;99850.67;;;2.52;82.89
59417;BME280;45222;52.458;20.914;2024-02-26T01:13:49;99846.77;;;2.47;82.75
59417;BME280;45222;52.458;20.914;2024-02-26T01:17:39;99841.77;;;2.36;82.57
59417;BME280;45222;52.458;20.914;2024-02-26T01:21:27;99841.66;;;2.25;82.44
59417;BME280;45222;52.458;20.914;2024-02-26T01:25:15;99838.70;;;2.16;82.52
59417;BME280;45222;52.458;20.914;2024-02-26T01:29:03;99843.40;;;2.10;82.65
59417;BME280;45222;52.458;20.914;2024-02-26T01:32:50;99841.57;;;2.06;82.72
59417;BME280;45222;52.458;20.914;2024-02-26T01:36:38;99841.77;;;1.96;82.98
59417;BME280;45222;52.458;20.914;2024-02-26T01:40:27;99842.17;;;1.94;83.09
59417;BME280;45222;52.458;20.914;2024-02-26T01:44:16;99841.91;;;1.90;82.99
59417;BME280;45222;52.458;20.914;2024-02-26T01:48:04;99842.33;;;1.86;83.33
59417;BME280;45222;52.458;20.914;2024-02-26T01:51:52;99840.69;;;1.81;83.45
59417;BME280;45222;52.458;20.914;2024-02-26T01:55:40;99835.92;;;1.82;83.72
59417;BME280;45222;52.458;20.914;2024-02-26T01:59:28;99841.55;;;1.82;83.76
59417;BME280;45222;52.458;20.914;2024-02-26T02:03:15;99839.13;;;1.80;83.81
59417;BME280;45222;52.458;20.914;2024-02-26T02:07:04;99840.44;;;1.76;83.98
59417;BME280;45222;52.458;20.914;2024-02-26T02:10:52;99844.36;;;1.73;84.06
59417;BME280;45222;52.458;20.914;2024-02-26T02:14:40;99850.13;;;1.65;84.06
59417;BME280;45222;52.458;20.914;2024-02-26T02:18:28;99844.79;;;1.62;84.32
59417;BME280;45222;52.458;20.914;2024-02-26T02:22:15;99843.14;;;1.55;84.20
59417;BME280;45222;52.458;20.914;2024-02-26T02:26:03;99847.61;;;1.51;84.00
59417;BME280;45222;52.458;20.914;2024-02-26T02:29:51;99847.32;;;1.48;83.99
59417;BME280;45222;52.458;20.914;2024-02-26T02:37:43;99852.52;;;1.51;84.25
59417;BME280;45222;52.458;20.914;2024-02-26T02:41:31;99852.89;;;1.49;84.47
59417;BME280;45222;52.458;20.914;2024-02-26T02:45:19;99855.13;;;1.43;84.31
59417;BME280;45222;52.458;20.914;2024-02-26T02:49:09;99857.88;;;1.36;84.29
59417;BME280;45222;52.458;20.914;2024-02-26T02:52:57;99861.77;;;1.35;84.50
59417;BME280;45222;52.458;20.914;2024-02-26T02:56:45;99864.88;;;1.37;84.69
59417;BME280;45222;52.458;20.914;2024-02-26T03:00:32;99868.15;;;1.40;84.71
59417;BME280;45222;52.458;20.914;2024-02-26T03:04:20;99869.23;;;1.39;84.42
59417;BME280;45222;52.458;20.914;2024-02-26T03:08:08;99873.15;;;1.35;84.29
59417;BME280;45222;52.458;20.914;2024-02-26T03:11:55;99881.48;;;1.29;83.93
59417;BME280;45222;52.458;20.914;2024-02-26T03:15:43;99875.92;;;1.27;84.05
59417;BME280;45222;52.458;20.914;2024-02-26T03:19:31;99875.33;;;1.21;83.97
59417;BME280;45222;52.458;20.914;2024-02-26T03:23:19;99877.14;;;1.17;84.39
59417;BME280;45222;52.458;20.914;2024-02-26T03:27:07;99875.77;;;1.17;84.33
59417;BME280;45222;52.458;20.914;2024-02-26T03:30:55;99875.28;;;1.14;84.21
59417;BME280;45222;52.458;20.914;2024-02-26T03:34:43;99877.19;;;1.05;83.89
59417;BME280;45222;52.458;20.914;2024-02-26T03:38:31;99878.69;;;0.98;83.71
59417;BME280;45222;52.458;20.914;2024-02-26T03:42:18;99885.48;;;0.91;83.59
59417;BME280;45222;52.458;20.914;2024-02-26T03:46:08;99895.26;;;0.82;83.62
59417;BME280;45222;52.458;20.914;2024-02-26T03:49:57;99890.73;;;0.81;83.70
59417;BME280;45222;52.458;20.914;2024-02-26T03:53:45;99890.05;;;0.80;83.84
59417;BME280;45222;52.458;20.914;2024-02-26T03:57:33;99892.14;;;0.80;84.11
59417;BME280;45222;52.458;20.914;2024-02-26T04:01:21;99900.71;;;0.80;84.01
59417;BME280;45222;52.458;20.914;2024-02-26T04:05:12;99908.98;;;0.76;83.97
59417;BME280;45222;52.458;20.914;2024-02-26T04:09:00;99908.36;;;0.72;83.82
59417;BME280;45222;52.458;20.914;2024-02-26T04:12:50;99902.55;;;0.63;83.52
59417;BME280;45222;52.458;20.914;2024-02-26T04:16:37;99902.04;;;0.50;83.79
59417;BME280;45222;52.458;20.914;2024-02-26T04:20:25;99900.11;;;0.49;84.28
59417;BME280;45222;52.458;20.914;2024-02-26T04:24:13;99903.45;;;0.49;84.34
59417;BME280;45222;52.458;20.914;2024-02-26T04:28:00;99899.55;;;0.52;84.43
59417;BME280;45222;52.458;20.914;2024-02-26T04:31:48;99895.41;;;0.49;84.35
59417;BME280;45222;52.458;20.914;2024-02-26T04:35:36;99901.58;;;0.34;84.35
59417;BME280;45222;52.458;20.914;2024-02-26T04:39:23;99898.11;;;0.31;84.48
59417;BME280;45222;52.458;20.914;2024-02-26T04:43:12;99898.63;;;0.33;84.59
59417;BME280;45222;52.458;20.914;2024-02-26T04:47:00;99894.39;;;0.34;84.69
59417;BME280;45222;52.458;20.914;2024-02-26T04:50:48;99892.40;;;0.39;84.87
59417;BME280;45222;52.458;20.914;2024-02-26T04:54:36;99897.77;;;0.43;84.70
59417;BME280;45222;52.458;20.914;2024-02-26T04:58:24;99899.73;;;0.41;84.60
59417;BME280;45222;52.458;20.914;2024-02-26T05:02:11;99897.70;;;0.36;84.51
59417;BME280;45222;52.458;20.914;2024-02-26T05:06:00;99895.32;;;0.31;84.29
59417;BME280;45222;52.458;20.914;2024-02-26T05:09:48;99894.85;;;0.28;84.24
59417;BME280;45222;52.458;20.914;2024-02-26T05:13:36;99892.27;;;0.25;84.30
59417;BME280;45222;52.458;20.914;2024-02-26T05:17:24;99889.23;;;0.28;84.57
59417;BME280;45222;52.458;20.914;2024-02-26T05:21:12;99893.19;;;0.33;84.62
59417;BME280;45222;52.458;20.914;2024-02-26T05:24:59;99890.90;;;0.35;84.51
59417;BME280;45222;52.458;20.914;2024-02-26T05:28:47;99895.84;;;0.32;84.44
59417;BME280;45222;52.458;20.914;2024-02-26T05:32:35;99898.50;;;0.28;84.03
59417;BME280;45222;52.458;20.914;2024-02-26T05:36:23;99900.67;;;0.22;83.96
59417;BME280;45222;52.458;20.914;2024-02-26T05:40:12;99903.52;;;0.19;84.04
59417;BME280;45222;52.458;20.914;2024-02-26T05:44:00;99915.64;;;0.16;84.07
59417;BME280;45222;52.458;20.914;2024-02-26T05:47:48;99915.39;;;0.20;84.48
59417;BME280;45222;52.458;20.914;2024-02-26T05:51:36;99919.87;;;0.25;84.58
59417;BME280;45222;52.458;20.914;2024-02-26T05:55:24;99923.67;;;0.29;84.50
59417;BME280;45222;52.458;20.914;2024-02-26T05:59:12;99923.48;;;0.31;84.31
59417;BME280;45222;52.458;20.914;2024-02-26T06:03:01;99926.80;;;0.33;84.22
59417;BME280;45222;52.458;20.914;2024-02-26T06:06:49;99926.02;;;0.37;84.47
59417;BME280;45222;52.458;20.914;2024-02-26T06:10:37;99926.76;;;0.47;85.05
59417;BME280;45222;52.458;20.914;2024-02-26T06:14:25;99930.39;;;0.61;85.18
59417;BME280;45222;52.458;20.914;2024-02-26T06:18:13;99940.05;;;0.72;85.13
59417;BME280;45222;52.458;20.914;2024-02-26T06:22:00;99941.60;;;0.84;85.17
59417;BME280;45222;52.458;20.914;2024-02-26T06:25:48;99944.81;;;0.91;85.33
59417;BME280;45222;52.458;20.914;2024-02-26T06:29:36;99949.84;;;0.96;85.50
59417;BME280;45222;52.458;20.914;2024-02-26T06:33:24;99952.39;;;1.01;85.78
59417;BME280;45222;52.458;20.914;2024-02-26T06:37:11;99955.15;;;1.13;86.23
59417;BME280;45222;52.458;20.914;2024-02-26T06:40:59;99950.14;;;1.30;86.62
59417;BME280;45222;52.458;20.914;2024-02-26T06:44:50;99952.35;;;1.44;86.95
59417;BME280;45222;52.458;20.914;2024-02-26T06:48:38;99950.33;;;1.68;87.36
59417;BME280;45222;52.458;20.914;2024-02-26T06:52:25;99952.67;;;1.93;87.34
59417;BME280;45222;52.458;20.914;2024-02-26T06:56:13;99956.05;;;2.17;87.58
59417;BME280;45222;52.458;20.914;2024-02-26T07:00:01;99960.63;;;2.42;87.81
59417;BME280;45222;52.458;20.914;2024-02-26T07:03:48;99961.35;;;2.72;87.96
59417;BME280;45222;52.458;20.914;2024-02-26T07:07:36;99966.46;;;2.95;88.42
59417;BME280;45222;52.458;20.914;2024-02-26T07:11:24;99968.80;;;3.21;88.61
59417;BME280;45222;52.458;20.914;2024-02-26T07:15:12;99967.06;;;3.48;88.92
59417;BME280;45222;52.458;20.914;2024-02-26T07:19:00;99970.56;;;3.76;88.78
59417;BME280;45222;52.458;20.914;2024-02-26T07:22:47;99967.18;;;4.03;89.29
59417;BME280;45222;52.458;20.914;2024-02-26T07:26:36;99969.34;;;4.33;89.64
59417;BME280;45222;52.458;20.914;2024-02-26T07:30:23;99972.08;;;4.65;89.89
59417;BME280;45222;52.458;20.914;2024-02-26T07:34:11;99966.63;;;4.93;89.83
59417;BME280;45222;52.458;20.914;2024-02-26T07:37:59;99971.00;;;5.16;90.00
59417;BME280;45222;52.458;20.914;2024-02-26T07:41:50;99966.71;;;5.40;90.13
59417;BME280;45222;52.458;20.914;2024-02-26T07:45:39;99965.71;;;5.59;90.39
59417;BME280;45222;52.458;20.914;2024-02-26T07:49:27;99965.29;;;5.76;90.17
59417;BME280;45222;52.458;20.914;2024-02-26T07:53:15;99967.55;;;5.87;90.42
59417;BME280;45222;52.458;20.914;2024-02-26T07:57:02;99960.55;;;6.00;90.50
59417;BME280;45222;52.458;20.914;2024-02-26T08:00:52;99966.56;;;6.15;90.01
59417;BME280;45222;52.458;20.914;2024-02-26T08:04:42;99968.13;;;6.31;89.88
59417;BME280;45222;52.458;20.914;2024-02-26T08:08:30;99971.23;;;6.51;90.00
59417;BME280;45222;52.458;20.914;2024-02-26T08:12:19;99970.75;;;6.78;90.08
59417;BME280;45222;52.458;20.914;2024-02-26T08:16:07;99974.64;;;7.01;89.72
59417;BME280;45222;52.458;20.914;2024-02-26T08:19:55;99982.12;;;7.26;89.63
59417;BME280;45222;52.458;20.914;2024-02-26T08:23:44;99984.69;;;7.49;89.24
59417;BME280;45222;52.458;20.914;2024-02-26T08:27:32;99976.59;;;7.69;88.62
59417;BME280;45222;52.458;20.914;2024-02-26T08:31:19;99981.45;;;7.88;88.08
59417;BME280;45222;52.458;20.914;2024-02-26T08:35:08;99977.98;;;8.06;87.88
59417;BME280;45222;52.458;20.914;2024-02-26T08:38:55;99973.13;;;8.24;87.49
59417;BME280;45222;52.458;20.914;2024-02-26T08:42:45;99975.91;;;8.41;87.20
59417;BME280;45222;52.458;20.914;2024-02-26T08:46:34;99980.79;;;8.55;86.50
59417;BME280;45222;52.458;20.914;2024-02-26T08:50:21;99980.58;;;8.71;85.53
59417;BME280;45222;52.458;20.914;2024-02-26T08:54:11;99980.11;;;8.89;85.58
59417;BME280;45222;52.458;20.914;2024-02-26T08:57:59;99983.23;;;9.08;85.22
59417;BME280;45222;52.458;20.914;2024-02-26T09:01:47;99987.89;;;9.26;84.45
59417;BME280;45222;52.458;20.914;2024-02-26T09:05:34;99992.15;;;9.40;83.95
59417;BME280;45222;52.458;20.914;2024-02-26T09:09:22;99994.46;;;9.51;82.72
59417;BME280;45222;52.458;20.914;2024-02-26T09:13:13;99995.27;;;9.63;82.72
59417;BME280;45222;52.458;20.914;2024-02-26T09:17:00;99993.46;;;9.78;82.39
59417;BME280;45222;52.458;20.914;2024-02-26T09:20:48;99994.52;;;9.92;81.71
59417;BME280;45222;52.458;20.914;2024-02-26T09:24:37;99994.19;;;10.02;80.96
59417;BME280;45222;52.458;20.914;2024-02-26T09:28:25;99995.14;;;10.11;80.42
59417;BME280;45222;52.458;20.914;2024-02-26T09:32:13;99992.25;;;10.18;79.74
59417;BME280;45222;52.458;20.914;2024-02-26T09:36:00;99987.95;;;10.26;79.44
59417;BME280;45222;52.458;20.914;2024-02-26T09:39:48;99988.04;;;10.38;79.32
59417;BME280;45222;52.458;20.914;2024-02-26T09:43:38;99990.46;;;10.53;79.36
59417;BME280;45222;52.458;20.914;2024-02-26T09:47:30;99991.46;;;10.67;78.87
59417;BME280;45222;52.458;20.914;2024-02-26T09:51:24;99989.94;;;10.82;78.14
59417;BME280;45222;52.458;20.914;2024-02-26T09:55:11;99994.23;;;10.94;77.81
59417;BME280;45222;52.458;20.914;2024-02-26T09:58:59;99997.93;;;11.05;76.59
59417;BME280;45222;52.458;20.914;2024-02-26T10:02:49;99995.00;;;11.16;76.52
59417;BME280;45222;52.458;20.914;2024-02-26T10:06:37;99999.58;;;11.32;76.86
59417;BME280;45222;52.458;20.914;2024-02-26T10:10:25;99995.55;;;11.53;76.87
59417;BME280;45222;52.458;20.914;2024-02-26T10:14:15;99995.04;;;11.71;75.04
59417;BME280;45222;52.458;20.914;2024-02-26T10:18:06;99989.98;;;11.87;73.97
59417;BME280;45222;52.458;20.914;2024-02-26T10:21:57;99988.42;;;12.01;74.32
59417;BME280;45222;52.458;20.914;2024-02-26T10:25:55;99988.11;;;12.16;74.32
59417;BME280;45222;52.458;20.914;2024-02-26T10:29:43;99989.64;;;12.31;74.13
59417;BME280;45222;52.458;20.914;2024-02-26T10:33:34;99988.75;;;12.48;74.34
59417;BME280;45222;52.458;20.914;2024-02-26T10:37:25;99988.95;;;12.65;74.19
59417;BME280;45222;52.458;20.914;2024-02-26T10:41:15;99984.86;;;12.82;72.75
59417;BME280;45222;52.458;20.914;2024-02-26T10:45:03;99988.61;;;12.93;72.34
59417;BME280;45222;52.458;20.914;2024-02-26T10:48:52;99991.88;;;13.01;72.97
59417;BME280;45222;52.458;20.914;2024-02-26T10:52:41;99994.42;;;13.06;72.64
59417;BME280;45222;52.458;20.914;2024-02-26T10:56:34;99990.02;;;13.18;72.37
59417;BME280;45222;52.458;20.914;2024-02-26T11:00:24;99988.00;;;13.38;72.69
59417;BME280;45222;52.458;20.914;2024-02-26T11:04:12;99988.38;;;13.49;72.50
59417;BME280;45222;52.458;20.914;2024-02-26T11:08:00;99989.08;;;13.54;72.73
59417;BME280;45222;52.458;20.914;2024-02-26T11:11:49;99991.80;;;13.49;71.90
59417;BME280;45222;52.458;20.914;2024-02-26T11:15:40;99997.19;;;13.34;71.78
59417;BME280;45222;52.458;20.914;2024-02-26T11:19:29;100001.13;;;13.18;71.82
59417;BME280;45222;52.458;20.914;2024-02-26T11:23:17;100001.02;;;13.00;71.94
59417;BME280;45222;52.458;20.914;2024-02-26T11:27:09;100001.73;;;12.86;72.08
59417;BME280;45222;52.458;20.914;2024-02-26T11:30:59;100003.17;;;12.75;72.31
59417;BME280;45222;52.458;20.914;2024-02-26T11:34:48;100002.77;;;12.75;73.20
59417;BME280;45222;52.458;20.914;2024-02-26T11:38:37;99998.14;;;12.75;72.68
59417;BME280;45222;52.458;20.914;2024-02-26T11:42:25;100003.98;;;12.62;72.41
59417;BME280;45222;52.458;20.914;2024-02-26T11:46:28;100004.48;;;12.39;72.36
59417;BME280;45222;52.458;20.914;2024-02-26T11:50:36;100008.38;;;12.28;72.66
59417;BME280;45222;52.458;20.914;2024-02-26T11:54:43;100011.77;;;12.19;73.11
59417;BME280;45222;52.458;20.914;2024-02-26T11:58:33;100011.73;;;12.01;73.31
59417;BME280;45222;52.458;20.914;2024-02-26T12:02:39;100009.52;;;11.94;73.36
59417;BME280;45222;52.458;20.914;2024-02-26T12:06:28;100014.13;;;11.88;73.54
59417;BME280;45222;52.458;20.914;2024-02-26T12:10:15;100010.96;;;11.97;73.73
59417;BME280;45222;52.458;20.914;2024-02-26T12:14:03;100005.48;;;12.25;73.94
59417;BME280;45222;52.458;20.914;2024-02-26T12:17:52;100007.42;;;12.55;73.56
59417;BME280;45222;52.458;20.914;2024-02-26T12:21:44;99998.34;;;12.83;73.05
59417;BME280;45222;52.458;20.914;2024-02-26T12:25:34;99995.49;;;13.05;72.21
59417;BME280;45222;52.458;20.914;2024-02-26T12:29:22;99996.58;;;13.30;71.85
59417;BME280;45222;52.458;20.914;2024-02-26T12:33:10;99998.56;;;13.54;71.29
59417;BME280;45222;52.458;20.914;2024-02-26T12:37:00;100005.74;;;13.75;70.07
59417;BME280;45222;52.458;20.914;2024-02-26T12:40:49;100003.95;;;13.86;69.49
59417;BME280;45222;52.458;20.914;2024-02-26T12:44:37;100002.80;;;14.00;69.17
59417;BME280;45222;52.458;20.914;2024-02-26T12:48:27;100002.11;;;14.16;68.52
59417;BME280;45222;52.458;20.914;2024-02-26T12:52:15;99996.09;;;14.33;67.76
59417;BME280;45222;52.458;20.914;2024-02-26T12:56:06;99989.58;;;14.54;67.96
59417;BME280;45222;52.458;20.914;2024-02-26T12:59:55;99986.39;;;14.82;68.23
59417;BME280;45222;52.458;20.914;2024-02-26T13:03:45;99986.00;;;15.07;67.08
59417;BME280;45222;52.458;20.914;2024-02-26T13:07:33;99989.33;;;15.21;65.97
59417;BME280;45222;52.458;20.914;2024-02-26T13:11:21;99993.16;;;15.27;66.02
59417;BME280;45222;52.458;20.914;2024-02-26T13:15:15;99993.83;;;15.35;64.83
59417;BME280;45222;52.458;20.914;2024-02-26T13:19:10;99997.41;;;15.44;63.90
59417;BME280;45222;52.458;20.914;2024-02-26T13:23:06;99999.05;;;15.54;64.67
59417;BME280;45222;52.458;20.914;2024-02-26T13:26:57;99997.91;;;15.59;63.66
59417;BME280;45222;52.458;20.914;2024-02-26T13:30:51;99998.08;;;15.60;63.95
59417;BME280;45222;52.458;20.914;2024-02-26T13:34:39;99994.92;;;15.61;62.76
59417;BME280;45222;52.458;20.914;2024-02-26T13:38:27;99992.29;;;15.65;63.20
59417;BME280;45222;52.458;20.914;2024-02-26T13:42:14;99989.95;;;15.67;62.94
59417;BME280;45222;52.458;20.914;2024-02-26T13:46:01;99999.27;;;15.63;62.60
59417;BME280;45222;52.458;20.914;2024-02-26T13:49:49;99995.58;;;15.60;62.83
59417;BME280;45222;52.458;20.914;2024-02-26T13:53:37;99995.74;;;15.60;62.36
59417;BME280;45222;52.458;20.914;2024-02-26T13:57:24;99993.75;;;15.67;61.86
59417;BME280;45222;52.458;20.914;2024-02-26T14:01:12;99988.35;;;15.74;61.61
59417;BME280;45222;52.458;20.914;2024-02-26T14:05:00;99981.42;;;15.76;61.01
59417;BME280;45222;52.458;20.914;2024-02-26T14:08:49;99984.05;;;15.74;60.55
59417;BME280;45222;52.458;20.914;2024-02-26T14:12:37;99984.13;;;15.74;60.67
59417;BME280;45222;52.458;20.914;2024-02-26T14:16:25;99983.77;;;15.68;60.07
59417;BME280;45222;52.458;20.914;2024-02-26T14:20:16;99983.55;;;15.53;60.27
59417;BME280;45222;52.458;20.914;2024-02-26T14:24:13;99984.64;;;15.33;59.89
59417;BME280;45222;52.458;20.914;2024-02-26T14:28:02;99983.88;;;15.12;60.15
59417;BME280;45222;52.458;20.914;2024-02-26T14:31:50;99982.90;;;14.91;60.66
59417;BME280;45222;52.458;20.914;2024-02-26T14:35:37;99984.55;;;14.81;60.93
59417;BME280;45222;52.458;20.914;2024-02-26T14:39:25;99985.67;;;14.74;61.01
59417;BME280;45222;52.458;20.914;2024-02-26T14:43:13;99985.24;;;14.73;61.44
59417;BME280;45222;52.458;20.914;2024-02-26T14:47:00;99986.00;;;14.69;61.22
59417;BME280;45222;52.458;20.914;2024-02-26T14:50:48;99985.56;;;14.63;60.84
59417;BME280;45222;52.458;20.914;2024-02-26T14:54:37;99986.61;;;14.56;61.05
59417;BME280;45222;52.458;20.914;2024-02-26T14:58:26;99989.96;;;14.46;61.54
59417;BME280;45222;52.458;20.914;2024-02-26T15:02:14;99986.87;;;14.35;61.71
59417;BME280;45222;52.458;20.914;2024-02-26T15:06:02;99988.75;;;14.20;62.05
59417;BME280;45222;52.458;20.914;2024-02-26T15:09:51;99994.28;;;14.05;62.32
59417;BME280;45222;52.458;20.914;2024-02-26T15:13:45;99997.77;;;13.85;62.64
59417;BME280;45222;52.458;20.914;2024-02-26T15:17:33;99996.50;;;13.61;63.15
59417;BME280;45222;52.458;20.914;2024-02-26T15:21:22;99995.19;;;13.40;63.47
59417;BME280;45222;52.458;20.914;2024-02-26T15:25:10;100002.86;;;13.21;64.02
59417;BME280;45222;52.458;20.914;2024-02-26T15:28:58;100003.48;;;13.01;64.48
59417;BME280;45222;52.458;20.914;2024-02-26T15:32:46;100007.63;;;12.80;65.01
59417;BME280;45222;52.458;20.914;2024-02-26T15:36:35;100003.29;;;12.59;65.59
59417;BME280;45222;52.458;20.914;2024-02-26T15:40:23;99999.68;;;12.36;66.15
59417;BME280;45222;52.458;20.914;2024-02-26T15:44:13;100005.29;;;12.14;66.43
59417;BME280;45222;52.458;20.914;2024-02-26T15:48:00;100013.55;;;11.98;67.24
59417;BME280;45222;52.458;20.914;2024-02-26T15:51:48;100021.44;;;11.88;67.85
59417;BME280;45222;52.458;20.914;2024-02-26T15:55:39;100019.98;;;11.73;68.16
59417;BME280;45222;52.458;20.914;2024-02-26T15:59:29;100023.99;;;11.56;68.63
59417;BME280;45222;52.458;20.914;2024-02-26T16:03:17;100024.50;;;11.38;69.01
59417;BME280;45222;52.458;20.914;2024-02-26T16:07:07;100026.42;;;11.17;69.62
59417;BME280;45222;52.458;20.914;2024-02-26T16:10:58;100039.17;;;10.96;70.00
59417;BME280;45222;52.458;20.914;2024-02-26T16:14:49;100039.31;;;10.77;70.57
59417;BME280;45222;52.458;20.914;2024-02-26T16:18:38;100036.88;;;10.56;71.71
59417;BME280;45222;52.458;20.914;2024-02-26T16:22:29;100040.77;;;10.36;72.32
59417;BME280;45222;52.458;20.914;2024-02-26T16:26:23;100040.73;;;10.19;72.67
59417;BME280;45222;52.458;20.914;2024-02-26T16:30:14;100050.88;;;10.08;73.02
59417;BME280;45222;52.458;20.914;2024-02-26T16:34:02;100055.29;;;9.98;73.81
59417;BME280;45222;52.458;20.914;2024-02-26T16:37:50;100064.14;;;9.88;74.18
59417;BME280;45222;52.458;20.914;2024-02-26T16:41:38;100066.73;;;9.79;74.37
59417;BME280;45222;52.458;20.914;2024-02-26T16:45:25;100077.26;;;9.71;74.76
59417;BME280;45222;52.458;20.914;2024-02-26T16:49:14;100075.23;;;9.62;74.62
59417;BME280;45222;52.458;20.914;2024-02-26T16:53:02;100080.40;;;9.54;75.32
59417;BME280;45222;52.458;20.914;2024-02-26T16:56:49;100084.33;;;9.50;75.90
59417;BME280;45222;52.458;20.914;2024-02-26T17:00:37;100078.34;;;9.49;76.24
59417;BME280;45222;52.458;20.914;2024-02-26T17:04:25;100074.65;;;9.45;76.55
59417;BME280;45222;52.458;20.914;2024-02-26T17:08:13;100080.95;;;9.39;76.54
59417;BME280;45222;52.458;20.914;2024-02-26T17:12:05;100083.39;;;9.32;76.99
59417;BME280;45222;52.458;20.914;2024-02-26T17:15:54;100091.20;;;9.25;77.02
59417;BME280;45222;52.458;20.914;2024-02-26T17:19:44;100093.95;;;9.20;77.43
59417;BME280;45222;52.458;20.914;2024-02-26T17:23:32;100101.14;;;9.18;77.96
59417;BME280;45222;52.458;20.914;2024-02-26T17:27:25;100101.20;;;9.16;78.42
59417;BME280;45222;52.458;20.914;2024-02-26T17:31:15;100097.35;;;9.15;78.75
59417;BME280;45222;52.458;20.914;2024-02-26T17:35:04;100097.85;;;9.12;78.84
59417;BME280;45222;52.458;20.914;2024-02-26T17:38:51;100106.35;;;9.08;78.81
59417;BME280;45222;52.458;20.914;2024-02-26T17:42:39;100097.69;;;9.00;80.08
59417;BME280;45222;52.458;20.914;2024-02-26T17:46:27;100096.02;;;8.94;79.66
59417;BME280;45222;52.458;20.914;2024-02-26T17:50:16;100098.74;;;8.89;79.84
59417;BME280;45222;52.458;20.914;2024-02-26T17:54:04;100097.73;;;8.87;80.42
59417;BME280;45222;52.458;20.914;2024-02-26T17:57:54;100100.98;;;8.90;81.25
59417;BME280;45222;52.458;20.914;2024-02-26T18:01:42;100099.73;;;8.90;81.39
59417;BME280;45222;52.458;20.914;2024-02-26T18:05:29;100102.20;;;8.94;81.63
59417;BME280;45222;52.458;20.914;2024-02-26T18:09:18;100107.20;;;8.97;81.80
59417;BME280;45222;52.458;20.914;2024-02-26T18:13:04;100105.58;;;9.02;82.25
59417;BME280;45222;52.458;20.914;2024-02-26T18:16:52;100108.85;;;9.04;82.61
59417;BME280;45222;52.458;20.914;2024-02-26T18:20:40;100114.48;;;9.12;82.74
59417;BME280;45222;52.458;20.914;2024-02-26T18:24:29;100120.39;;;9.20;83.14
59417;BME280;45222;52.458;20.914;2024-02-26T18:28:17;100125.52;;;9.23;83.32
59417;BME280;45222;52.458;20.914;2024-02-26T18:32:09;100117.81;;;9.25;83.72
59417;BME280;45222;52.458;20.914;2024-02-26T18:35:56;100122.09;;;9.29;84.14
59417;BME280;45222;52.458;20.914;2024-02-26T18:39:46;100124.66;;;9.34;84.45
59417;BME280;45222;52.458;20.914;2024-02-26T18:43:34;100125.55;;;9.42;84.53
59417;BME280;45222;52.458;20.914;2024-02-26T18:47:22;100119.79;;;9.44;84.68
59417;BME280;45222;52.458;20.914;2024-02-26T18:51:10;100120.70;;;9.43;84.50
59417;BME280;45222;52.458;20.914;2024-02-26T18:54:58;100116.72;;;9.41;84.53
59417;BME280;45222;52.458;20.914;2024-02-26T18:58:46;100114.89;;;9.38;84.94
59417;BME280;45222;52.458;20.914;2024-02-26T19:02:37;100114.21;;;9.37;85.29
59417;BME280;45222;52.458;20.914;2024-02-26T19:06:30;100116.61;;;9.39;85.72
59417;BME280;45222;52.458;20.914;2024-02-26T19:10:26;100119.23;;;9.40;85.58
59417;BME280;45222;52.458;20.914;2024-02-26T19:14:14;100120.56;;;9.38;85.62
59417;BME280;45222;52.458;20.914;2024-02-26T19:18:02;100124.25;;;9.39;85.42
59417;BME280;45222;52.458;20.914;2024-02-26T19:21:52;100120.50;;;9.40;85.64
59417;BME280;45222;52.458;20.914;2024-02-26T19:25:42;100118.15;;;9.41;86.21
59417;BME280;45222;52.458;20.914;2024-02-26T19:29:30;100124.25;;;9.46;86.59
59417;BME280;45222;52.458;20.914;2024-02-26T19:33:19;100127.84;;;9.50;86.81
59417;BME280;45222;52.458;20.914;2024-02-26T19:37:08;100130.87;;;9.49;86.98
59417;BME280;45222;52.458;20.914;2024-02-26T19:40:56;100131.87;;;9.51;87.01
59417;BME280;45222;52.458;20.914;2024-02-26T19:44:45;100131.09;;;9.56;87.37
59417;BME280;45222;52.458;20.914;2024-02-26T19:48:33;100131.33;;;9.62;87.79
59417;BME280;45222;52.458;20.914;2024-02-26T19:52:21;100122.45;;;9.65;88.42
59417;BME280;45222;52.458;20.914;2024-02-26T19:56:10;100120.13;;;9.66;88.33
59417;BME280;45222;52.458;20.914;2024-02-26T19:59:58;100120.86;;;9.65;88.37
59417;BME280;45222;52.458;20.914;2024-02-26T20:03:46;100122.02;;;9.67;88.36